Cajun Express — ELXL3 — position and weather

sailwx.info

Track history (hours):
 
Tides and Currents Weather Stations Pressure Air Temp Water Temp Dewpoint Dewpoint Depression Visibility Wind Speed Wind Dir Waves Ship Positions

Cajun Express

Last reported at 2018-Jan-01 11:54 UTC. Time now 2018-Jun-22 07:46 UTC.
Position N 38°14' E 025°45'.
Warning: this ship's position is months out of date.

Length 106 m; draft 16.5 m.

Type: Other ship. MMSI: 636011189.

Date/timePositionNaut miles runAvg speedWind from/ knotsBaromVisibWave heightAir tempDewpointWater temp
2018-Jan-01 11:54N 38°14' E 025°45'2 5.5
2018-Jan-01 11:28N 38°11' E 025°45'7 5.3
2018-Jan-01 10:04N 38°04' E 025°44'0 5.3
2018-Jan-01 10:01N 38°03' E 025°44'10 4.9
2018-Jan-01 07:53N 37°53' E 025°46'24 6.1
2018-Jan-01 03:56N 37°29' E 025°48'2 5.7
2018-Jan-01 03:30N 37°27' E 025°48'3 5.5
2018-Jan-01 03:00N 37°25' E 025°51'3 5.4
2018-Jan-01 02:30N 37°23' E 025°54'3 5.3
2018-Jan-01 02:00N 37°22' E 025°56'3 5.1
2018-Jan-01 01:30N 37°21' E 025°59'5 5.0
2018-Jan-01 00:30N 37°18' E 026°05'18 5.3
2017-Dec-31 21:00N 37°10' E 026°25'3 5.4
2017-Dec-31 20:30N 37°08' E 026°28'3 5.2
2017-Dec-31 20:00N 37°07' E 026°31'3 5.2
2017-Dec-31 19:30N 37°06' E 026°34'2 5.1
2017-Dec-31 19:00N 37°04' E 026°36'2 4.9
2017-Dec-31 18:30N 37°03' E 026°39'2 4.8
2017-Dec-31 18:00N 37°01' E 026°40'2 4.8
2017-Dec-31 17:30N 36°58' E 026°41'5 4.6
2017-Dec-31 16:20N 36°53' E 026°42'1 4.5
2017-Dec-31 16:00N 36°52' E 026°42'2 4.5
2017-Dec-31 15:30N 36°49' E 026°43'2 4.3
2017-Dec-31 15:00N 36°47' E 026°44'2 4.2
2017-Dec-31 14:30N 36°45' E 026°44'2 4.0
2017-Dec-31 14:00N 36°43' E 026°45'2 3.7
2017-Dec-31 13:30N 36°41' E 026°45'2 3.6
2017-Dec-31 13:00N 36°40' E 026°46'2 3.6
2017-Dec-31 12:30N 36°38' E 026°46'3 3.9
2017-Dec-31 11:51N 36°35' E 026°46'1 4.0
2017-Dec-31 11:30N 36°34' E 026°46'2 4.3
2017-Dec-31 10:58N 36°32' E 026°47'2 4.4
2017-Dec-31 10:27N 36°29' E 026°47'2 4.5
2017-Dec-31 09:54N 36°27' E 026°48'5 5.3
2017-Dec-31 08:59N 36°22' E 026°50'4 4.8
2017-Dec-31 08:07N 36°18' E 026°52'128 4.4
2017-Dec-30 02:53N 34°45' E 025°04'90 5.9
2017-Dec-29 11:37N 34°50' E 023°15'  
2017-Dec-26 15:50N 36°12' E 014°49'3 7.4
2017-Dec-26 15:29N 36°12' E 014°46'5 7.2
2017-Dec-26 14:51N 36°13' E 014°41'2 7.1
2017-Dec-26 14:30N 36°14' E 014°38'4 7.1
2017-Dec-26 14:00N 36°14' E 014°33'4 7.1
2017-Dec-26 13:30N 36°15' E 014°29'3 6.9
2017-Dec-26 13:00N 36°16' E 014°25'3 6.9
2017-Dec-26 12:30N 36°17' E 014°21'3 6.8
2017-Dec-26 12:00N 36°18' E 014°17'3 6.7
2017-Dec-26 11:30N 36°19' E 014°13'3 6.9
2017-Dec-26 11:00N 36°20' E 014°09'4 7.1
2017-Dec-26 10:30N 36°22' E 014°05'4 7.1
2017-Dec-26 10:00N 36°23' E 014°01'4 7.2
2017-Dec-26 09:30N 36°25' E 013°57'4 7.2
2017-Dec-26 09:00N 36°26' E 013°53'3 5.6
2017-Dec-26 08:30N 36°27' E 013°50'2 4.4
2017-Dec-26 08:00N 36°28' E 013°47'3 5.0
2017-Dec-26 07:26N 36°29' E 013°44'  
Track history (hours):
 
Tides and Currents Weather Stations Pressure Air Temp Water Temp Dewpoint Dewpoint Depression Visibility Wind Speed Wind Dir Waves Ship Positions

Cajun Express

Last reported at 2018-Jan-01 11:54 UTC. Time now 2018-Jun-22 07:46 UTC.
Position N 38°14' E 025°45'.
Warning: this ship's position is months out of date.

Length 106 m; draft 16.5 m.

Type: Other ship. MMSI: 636011189.

Date/timePositionNaut miles runAvg speedWind from/ knotsBaromVisibWave heightAir tempDewpointWater temp
2018-Jan-01 11:54N 38°14' E 025°45'2 5.5
2018-Jan-01 11:28N 38°11' E 025°45'7 5.3
2018-Jan-01 10:04N 38°04' E 025°44'0 5.3
2018-Jan-01 10:01N 38°03' E 025°44'10 4.9
2018-Jan-01 07:53N 37°53' E 025°46'24 6.1
2018-Jan-01 03:56N 37°29' E 025°48'2 5.7
2018-Jan-01 03:30N 37°27' E 025°48'3 5.5
2018-Jan-01 03:00N 37°25' E 025°51'3 5.4
2018-Jan-01 02:30N 37°23' E 025°54'3 5.3
2018-Jan-01 02:00N 37°22' E 025°56'3 5.1
2018-Jan-01 01:30N 37°21' E 025°59'5 5.0
2018-Jan-01 00:30N 37°18' E 026°05'18 5.3
2017-Dec-31 21:00N 37°10' E 026°25'3 5.4
2017-Dec-31 20:30N 37°08' E 026°28'3 5.2
2017-Dec-31 20:00N 37°07' E 026°31'3 5.2
2017-Dec-31 19:30N 37°06' E 026°34'2 5.1
2017-Dec-31 19:00N 37°04' E 026°36'2 4.9
2017-Dec-31 18:30N 37°03' E 026°39'2 4.8
2017-Dec-31 18:00N 37°01' E 026°40'2 4.8
2017-Dec-31 17:30N 36°58' E 026°41'5 4.6
2017-Dec-31 16:20N 36°53' E 026°42'1 4.5
2017-Dec-31 16:00N 36°52' E 026°42'2 4.5
2017-Dec-31 15:30N 36°49' E 026°43'2 4.3
2017-Dec-31 15:00N 36°47' E 026°44'2 4.2
2017-Dec-31 14:30N 36°45' E 026°44'2 4.0
2017-Dec-31 14:00N 36°43' E 026°45'2 3.7
2017-Dec-31 13:30N 36°41' E 026°45'2 3.6
2017-Dec-31 13:00N 36°40' E 026°46'2 3.6
2017-Dec-31 12:30N 36°38' E 026°46'3 3.9
2017-Dec-31 11:51N 36°35' E 026°46'1 4.0
2017-Dec-31 11:30N 36°34' E 026°46'2 4.3
2017-Dec-31 10:58N 36°32' E 026°47'2 4.4
2017-Dec-31 10:27N 36°29' E 026°47'2 4.5
2017-Dec-31 09:54N 36°27' E 026°48'5 5.3
2017-Dec-31 08:59N 36°22' E 026°50'4 4.8
2017-Dec-31 08:07N 36°18' E 026°52'128 4.4
2017-Dec-30 02:53N 34°45' E 025°04'90 5.9
2017-Dec-29 11:37N 34°50' E 023°15'  
2017-Dec-26 15:50N 36°12' E 014°49'3 7.4
2017-Dec-26 15:29N 36°12' E 014°46'5 7.2
2017-Dec-26 14:51N 36°13' E 014°41'2 7.1
2017-Dec-26 14:30N 36°14' E 014°38'4 7.1
2017-Dec-26 14:00N 36°14' E 014°33'4 7.1
2017-Dec-26 13:30N 36°15' E 014°29'3 6.9
2017-Dec-26 13:00N 36°16' E 014°25'3 6.9
2017-Dec-26 12:30N 36°17' E 014°21'3 6.8
2017-Dec-26 12:00N 36°18' E 014°17'3 6.7
2017-Dec-26 11:30N 36°19' E 014°13'3 6.9
2017-Dec-26 11:00N 36°20' E 014°09'4 7.1
2017-Dec-26 10:30N 36°22' E 014°05'4 7.1
2017-Dec-26 10:00N 36°23' E 014°01'4 7.2
2017-Dec-26 09:30N 36°25' E 013°57'4 7.2
2017-Dec-26 09:00N 36°26' E 013°53'3 5.6
2017-Dec-26 08:30N 36°27' E 013°50'2 4.4
2017-Dec-26 08:00N 36°28' E 013°47'3 5.0
2017-Dec-26 07:26N 36°29' E 013°44'  

Dump ship's entire track history